createdAt,value
2017-10-07T00:01:05.897Z,11.50
2017-10-07T00:03:33.461Z,11.40
2017-10-07T00:06:01.077Z,11.40
2017-10-07T00:08:28.653Z,11.40
2017-10-07T00:10:56.271Z,11.50
2017-10-07T00:13:23.886Z,11.40
2017-10-07T00:15:51.557Z,11.40
2017-10-07T00:18:19.419Z,11.40
2017-10-07T00:20:47.024Z,11.40
2017-10-07T00:23:14.676Z,11.30
2017-10-07T00:25:42.271Z,11.30
2017-10-07T00:28:10.809Z,11.30
2017-10-07T00:30:38.458Z,11.30
2017-10-07T00:33:06.080Z,11.30
2017-10-07T00:35:34.444Z,11.10
2017-10-07T00:38:02.061Z,11.20
2017-10-07T00:40:29.669Z,11.20
2017-10-07T00:42:57.264Z,11.20
2017-10-07T00:45:24.895Z,11.20
2017-10-07T00:47:52.481Z,11.20
2017-10-07T00:50:20.036Z,11.20
2017-10-07T00:52:48.409Z,11.20
2017-10-07T00:55:16.853Z,11.30
2017-10-07T00:57:44.457Z,11.30
2017-10-07T01:00:12.823Z,11.30
2017-10-07T01:02:41.216Z,11.30
2017-10-07T01:05:08.801Z,11.30
2017-10-07T01:07:36.386Z,11.30
2017-10-07T01:10:04.021Z,11.30
2017-10-07T01:12:31.646Z,11.30
2017-10-07T01:14:59.999Z,11.20
2017-10-07T01:17:27.619Z,11.20
2017-10-07T01:19:55.244Z,11.20
2017-10-07T01:22:23.822Z,10.90
2017-10-07T01:24:52.815Z,11.00
2017-10-07T01:27:20.482Z,10.90
2017-10-07T01:29:48.133Z,11.00
2017-10-07T01:32:15.749Z,10.80
2017-10-07T01:34:43.409Z,10.80
2017-10-07T01:37:11.000Z,10.80
2017-10-07T01:39:38.674Z,10.80
2017-10-07T01:42:07.054Z,10.90
2017-10-07T01:44:34.622Z,10.90
2017-10-07T01:47:02.279Z,10.90
2017-10-07T01:49:29.858Z,10.70
2017-10-07T01:51:58.217Z,10.60
2017-10-07T01:54:25.804Z,10.60
2017-10-07T01:56:54.141Z,10.60
2017-10-07T01:59:21.731Z,10.60
2017-10-07T02:01:50.078Z,10.60
2017-10-07T02:04:17.700Z,10.50
2017-10-07T02:06:45.336Z,10.60
2017-10-07T02:09:13.737Z,10.60
2017-10-07T02:11:41.351Z,10.60
2017-10-07T02:14:08.957Z,10.70
2017-10-07T02:16:36.613Z,10.70
2017-10-07T02:19:04.235Z,10.70
2017-10-07T02:21:31.856Z,10.70
2017-10-07T02:23:59.483Z,10.80
2017-10-07T02:26:27.100Z,10.80
2017-10-07T02:28:54.708Z,10.80
2017-10-07T02:31:22.358Z,10.80
2017-10-07T02:33:49.969Z,10.90
2017-10-07T02:36:17.576Z,10.70
2017-10-07T02:38:45.992Z,10.80
2017-10-07T02:41:13.591Z,10.70
2017-10-07T02:43:41.181Z,10.70
2017-10-07T02:46:08.803Z,10.80
2017-10-07T02:48:36.394Z,10.80
2017-10-07T02:51:04.744Z,10.90
2017-10-07T02:53:32.421Z,10.90
2017-10-07T02:56:00.040Z,10.90
2017-10-07T02:58:28.541Z,11.00
2017-10-07T03:00:56.196Z,10.90
2017-10-07T03:03:23.778Z,10.90
2017-10-07T03:05:51.365Z,10.90
2017-10-07T03:08:19.711Z,10.90
2017-10-07T03:10:47.358Z,10.90
2017-10-07T03:13:14.981Z,10.90
2017-10-07T03:15:43.385Z,10.90
2017-10-07T03:18:10.974Z,10.90
2017-10-07T03:20:38.622Z,10.90
2017-10-07T03:23:06.280Z,10.90
2017-10-07T03:25:33.851Z,11.00
2017-10-07T03:28:01.421Z,11.00
2017-10-07T03:30:29.077Z,11.00
2017-10-07T03:32:56.672Z,11.00
2017-10-07T03:35:25.041Z,10.80
2017-10-07T03:37:53.481Z,10.80
2017-10-07T03:40:21.354Z,10.80
2017-10-07T03:42:48.931Z,10.70
2017-10-07T03:45:16.587Z,10.80
2017-10-07T03:47:44.201Z,10.80
2017-10-07T03:50:11.786Z,10.80
2017-10-07T03:52:39.423Z,10.80
2017-10-07T03:55:06.992Z,10.80
2017-10-07T03:57:34.571Z,10.70
2017-10-07T04:00:02.223Z,10.70
2017-10-07T04:02:29.806Z,10.70
2017-10-07T04:04:57.418Z,10.80
2017-10-07T04:07:25.825Z,10.70
2017-10-07T04:09:53.403Z,10.70
2017-10-07T04:12:20.983Z,10.60
2017-10-07T04:14:48.681Z,10.50
2017-10-07T04:17:17.048Z,10.50
2017-10-07T04:19:45.405Z,10.50
2017-10-07T04:22:13.023Z,10.50
2017-10-07T04:24:40.597Z,10.40
2017-10-07T04:27:08.154Z,10.40
2017-10-07T04:29:35.842Z,10.40
2017-10-07T04:32:03.441Z,10.30
2017-10-07T04:34:31.848Z,10.30
2017-10-07T04:36:59.442Z,10.30
2017-10-07T04:39:27.071Z,10.30
2017-10-07T04:41:54.642Z,10.30
2017-10-07T04:44:22.310Z,10.10
2017-10-07T04:46:49.945Z,10.30
2017-10-07T04:49:17.729Z,10.30
2017-10-07T04:51:45.400Z,10.30
2017-10-07T04:54:13.022Z,10.20
2017-10-07T04:56:40.628Z,10.20
2017-10-07T04:59:08.257Z,10.30
2017-10-07T05:01:35.822Z,10.30
2017-10-07T05:04:04.266Z,10.20
2017-10-07T05:06:32.661Z,10.20
2017-10-07T05:09:00.254Z,10.20
2017-10-07T05:11:27.884Z,10.30
2017-10-07T05:13:55.489Z,10.30
2017-10-07T05:16:23.178Z,10.20
2017-10-07T05:18:50.744Z,10.30
2017-10-07T05:21:18.357Z,10.30
2017-10-07T05:23:45.935Z,10.40
2017-10-07T05:26:13.539Z,10.50
2017-10-07T05:28:41.173Z,10.50
2017-10-07T05:31:08.774Z,10.50
2017-10-07T05:33:36.352Z,10.50
2017-10-07T05:36:03.938Z,10.60
2017-10-07T05:38:31.547Z,10.60
2017-10-07T05:40:59.162Z,10.50
2017-10-07T05:43:26.756Z,10.60
2017-10-07T05:45:55.084Z,10.70
2017-10-07T05:48:22.981Z,10.70
2017-10-07T05:50:50.617Z,10.70
2017-10-07T05:53:18.229Z,10.60
2017-10-07T05:55:46.645Z,10.60
2017-10-07T05:58:14.236Z,10.60
2017-10-07T06:00:41.829Z,10.60
2017-10-07T06:03:10.551Z,10.60
2017-10-07T06:05:38.190Z,10.60
2017-10-07T06:08:05.791Z,10.70
2017-10-07T06:10:33.407Z,10.70
2017-10-07T06:13:01.050Z,10.70
2017-10-07T06:15:29.479Z,10.70
2017-10-07T06:17:58.017Z,10.70
2017-10-07T06:20:26.443Z,10.70
2017-10-07T06:22:54.036Z,10.70
2017-10-07T06:25:21.594Z,10.70
2017-10-07T06:27:49.238Z,10.80
2017-10-07T06:30:16.873Z,10.70
2017-10-07T06:32:44.422Z,10.80
2017-10-07T06:35:11.989Z,10.90
2017-10-07T06:37:39.664Z,10.90
2017-10-07T06:40:07.252Z,10.90
2017-10-07T06:42:34.940Z,11.00
2017-10-07T06:45:03.316Z,11.00
2017-10-07T06:47:31.706Z,11.00
2017-10-07T06:50:00.100Z,11.10
2017-10-07T06:52:27.735Z,11.10
2017-10-07T06:54:55.336Z,11.20
2017-10-07T06:57:22.959Z,10.90
2017-10-07T06:59:52.154Z,11.00
2017-10-07T07:02:21.041Z,11.10
2017-10-07T07:04:49.511Z,11.10
2017-10-07T07:07:17.162Z,11.10
2017-10-07T07:09:44.720Z,11.10
2017-10-07T07:12:12.358Z,11.10
2017-10-07T07:14:39.921Z,11.10
2017-10-07T07:17:07.508Z,11.20
2017-10-07T07:19:35.193Z,11.20
2017-10-07T07:22:03.652Z,11.30
2017-10-07T07:24:32.081Z,11.10
2017-10-07T07:26:59.733Z,11.10
2017-10-07T07:29:27.379Z,11.20
2017-10-07T07:31:55.006Z,11.30
2017-10-07T07:34:22.664Z,11.30
2017-10-07T07:36:50.267Z,11.40
2017-10-07T07:39:19.238Z,11.40
2017-10-07T07:41:46.876Z,11.40
2017-10-07T07:44:14.558Z,11.40
2017-10-07T07:46:42.259Z,11.50
2017-10-07T07:49:09.933Z,11.60
2017-10-07T07:51:37.522Z,11.70
2017-10-07T07:54:05.279Z,11.70
2017-10-07T07:56:32.874Z,11.80
2017-10-07T07:59:01.423Z,11.80
2017-10-07T08:01:29.052Z,11.90
2017-10-07T08:03:56.738Z,12.00
2017-10-07T08:06:24.366Z,12.00
2017-10-07T08:08:52.048Z,12.00
2017-10-07T08:11:19.642Z,12.00
2017-10-07T08:13:48.046Z,12.10
2017-10-07T08:16:16.432Z,12.40
2017-10-07T08:18:44.058Z,12.40
2017-10-07T08:21:12.530Z,12.60
2017-10-07T08:23:40.914Z,12.60
2017-10-07T08:26:08.579Z,12.60
2017-10-07T08:28:36.169Z,12.70
2017-10-07T08:31:04.570Z,12.50
2017-10-07T08:33:32.156Z,12.50
2017-10-07T08:35:59.770Z,12.60
2017-10-07T08:38:28.192Z,12.60
2017-10-07T08:40:55.834Z,12.50
2017-10-07T08:43:23.530Z,12.60
2017-10-07T08:45:51.124Z,12.70
2017-10-07T08:48:18.716Z,12.70
2017-10-07T08:50:46.359Z,12.60
2017-10-07T08:53:13.986Z,12.60
2017-10-07T08:55:41.626Z,12.60
2017-10-07T08:58:10.027Z,12.70
2017-10-07T09:00:38.439Z,12.70
2017-10-07T09:03:06.856Z,12.80
2017-10-07T09:05:34.500Z,12.70
2017-10-07T09:08:02.180Z,12.70
2017-10-07T09:10:29.816Z,12.70
2017-10-07T09:12:57.477Z,12.50
2017-10-07T09:15:25.111Z,12.50
2017-10-07T09:17:52.698Z,12.50
2017-10-07T09:20:20.337Z,12.40
2017-10-07T09:22:47.945Z,12.30
2017-10-07T09:25:15.564Z,12.20
2017-10-07T09:27:43.219Z,12.20
2017-10-07T09:30:11.697Z,12.10
2017-10-07T09:32:39.322Z,11.90
2017-10-07T09:35:06.936Z,12.10
2017-10-07T09:37:35.343Z,12.10
2017-10-07T09:40:02.989Z,12.10
2017-10-07T09:42:30.627Z,12.00
2017-10-07T09:44:59.014Z,12.10
2017-10-07T09:47:27.429Z,12.10
2017-10-07T09:49:55.058Z,12.20
2017-10-07T09:52:23.379Z,12.10
2017-10-07T09:54:51.032Z,12.10
2017-10-07T09:57:18.643Z,12.10
2017-10-07T09:59:46.281Z,12.20
2017-10-07T10:02:14.633Z,12.20
2017-10-07T10:04:42.246Z,12.10
2017-10-07T10:07:09.845Z,12.10
2017-10-07T10:09:37.421Z,12.10
2017-10-07T10:12:05.027Z,12.10
2017-10-07T10:14:32.581Z,12.10
2017-10-07T10:17:00.206Z,12.10
2017-10-07T10:19:28.271Z,12.10
2017-10-07T10:21:55.970Z,12.10
2017-10-07T10:24:23.644Z,12.10
2017-10-07T10:26:51.760Z,12.20
2017-10-07T10:29:19.426Z,12.30
2017-10-07T10:31:47.010Z,12.30
2017-10-07T10:34:15.462Z,12.50
2017-10-07T10:36:43.083Z,12.50
2017-10-07T10:39:10.695Z,12.40
2017-10-07T10:41:38.366Z,12.40
2017-10-07T10:44:06.749Z,12.30
2017-10-07T10:46:34.950Z,12.30
2017-10-07T10:49:03.149Z,12.30
2017-10-07T10:51:31.513Z,12.10
2017-10-07T10:53:59.106Z,12.10
2017-10-07T10:56:26.713Z,11.80
2017-10-07T10:58:54.328Z,11.60
2017-10-07T11:01:21.967Z,11.50
2017-10-07T11:03:50.431Z,11.40
2017-10-07T11:06:18.036Z,11.40
2017-10-07T11:08:45.639Z,11.30
2017-10-07T11:11:13.243Z,11.40
2017-10-07T11:13:41.681Z,11.20
2017-10-07T11:16:09.239Z,11.20
2017-10-07T11:18:36.894Z,11.10
2017-10-07T11:21:04.440Z,10.90
2017-10-07T11:23:32.099Z,10.90
2017-10-07T11:25:59.692Z,10.90
2017-10-07T11:28:27.245Z,10.90
2017-10-07T11:30:54.807Z,10.90
2017-10-07T11:33:23.192Z,10.90
2017-10-07T11:35:50.877Z,10.90
2017-10-07T11:38:18.496Z,10.90
2017-10-07T11:40:46.339Z,10.80
2017-10-07T11:43:13.929Z,10.70
2017-10-07T11:45:41.516Z,10.70
2017-10-07T11:48:09.865Z,10.70
2017-10-07T11:50:37.479Z,10.70
2017-10-07T11:53:05.069Z,10.70
2017-10-07T11:55:32.690Z,10.60
2017-10-07T11:58:01.072Z,10.70
2017-10-07T12:00:28.784Z,10.60
2017-10-07T12:02:56.394Z,10.70
2017-10-07T12:05:24.755Z,10.70
2017-10-07T12:07:52.360Z,10.70
2017-10-07T12:10:20.980Z,10.70
2017-10-07T12:12:48.683Z,10.70
2017-10-07T12:15:16.587Z,10.60
2017-10-07T12:17:44.202Z,10.60
2017-10-07T12:20:11.761Z,10.50
2017-10-07T12:22:40.127Z,10.60
2017-10-07T12:25:07.772Z,10.60
2017-10-07T12:27:35.357Z,10.50
2017-10-07T12:30:03.739Z,10.60
2017-10-07T12:32:32.132Z,10.60
2017-10-07T12:35:00.059Z,10.60
2017-10-07T12:37:27.717Z,10.60
2017-10-07T12:39:55.432Z,10.50
2017-10-07T12:42:23.017Z,10.50
2017-10-07T12:44:51.410Z,10.60
2017-10-07T12:47:19.059Z,10.60
2017-10-07T12:49:46.611Z,10.70
2017-10-07T12:52:14.204Z,10.60
2017-10-07T12:54:41.783Z,10.70
2017-10-07T12:57:10.142Z,10.70
2017-10-07T12:59:37.774Z,10.70
2017-10-07T13:02:05.410Z,10.70
2017-10-07T13:04:32.966Z,10.70
2017-10-07T13:07:00.557Z,10.70
2017-10-07T13:09:28.243Z,10.70
2017-10-07T13:11:55.850Z,10.60
2017-10-07T13:14:23.417Z,10.70
2017-10-07T13:16:51.016Z,10.70
2017-10-07T13:19:18.642Z,10.80
2017-10-07T13:21:46.228Z,10.70
2017-10-07T13:24:13.824Z,10.70
2017-10-07T13:26:42.172Z,10.70
2017-10-07T13:29:09.832Z,10.70
2017-10-07T13:31:37.524Z,10.70
2017-10-07T13:34:05.162Z,10.80
2017-10-07T13:36:33.610Z,10.90
2017-10-07T13:39:01.945Z,10.90
2017-10-07T13:41:30.339Z,11.00
2017-10-07T13:43:57.949Z,11.00
2017-10-07T13:46:25.509Z,10.90
2017-10-07T13:48:53.257Z,10.90
2017-10-07T13:51:20.848Z,10.80
2017-10-07T13:53:48.485Z,10.80
2017-10-07T13:56:16.105Z,10.80
2017-10-07T13:58:43.704Z,10.80
2017-10-07T14:01:11.319Z,10.80
2017-10-07T14:03:38.925Z,10.80
2017-10-07T14:06:06.571Z,10.90
2017-10-07T14:08:34.139Z,10.90
2017-10-07T14:11:01.777Z,10.90
2017-10-07T14:13:29.444Z,10.90
2017-10-07T14:15:57.084Z,11.00
2017-10-07T14:18:24.700Z,11.00
2017-10-07T14:20:52.282Z,11.00
2017-10-07T14:23:20.706Z,10.90
2017-10-07T14:25:48.312Z,10.90
2017-10-07T14:28:15.864Z,10.90
2017-10-07T14:30:43.470Z,10.90
2017-10-07T14:33:11.032Z,10.80
2017-10-07T14:35:38.659Z,10.90
2017-10-07T14:38:06.250Z,10.90
2017-10-07T14:40:34.858Z,10.90
2017-10-07T14:43:02.450Z,10.90
2017-10-07T14:45:30.116Z,11.00
2017-10-07T14:47:57.728Z,11.00
2017-10-07T14:50:25.326Z,11.00
2017-10-07T14:52:52.976Z,11.00
2017-10-07T14:55:20.588Z,11.10
2017-10-07T14:57:48.963Z,11.10
2017-10-07T15:00:16.530Z,11.00
2017-10-07T15:02:44.117Z,11.00
2017-10-07T15:05:11.794Z,11.10
2017-10-07T15:07:39.373Z,11.00
2017-10-07T15:10:06.979Z,11.10
2017-10-07T15:12:34.593Z,11.10
2017-10-07T15:15:02.984Z,11.00
2017-10-07T15:17:30.626Z,11.00
2017-10-07T15:19:58.224Z,11.10
2017-10-07T15:22:26.575Z,11.10
2017-10-07T15:24:54.212Z,11.10
2017-10-07T15:27:21.789Z,11.10
2017-10-07T15:29:49.451Z,11.10
2017-10-07T15:32:17.048Z,11.10
2017-10-07T15:34:44.633Z,11.10
2017-10-07T15:37:12.312Z,11.10
2017-10-07T15:39:39.884Z,11.10
2017-10-07T15:42:07.494Z,11.10
2017-10-07T15:44:35.879Z,11.20
2017-10-07T15:47:03.925Z,11.10
2017-10-07T15:49:31.575Z,11.10
2017-10-07T15:51:59.122Z,11.10
2017-10-07T15:54:26.723Z,11.10
2017-10-07T15:56:55.112Z,11.10
2017-10-07T15:59:23.599Z,11.20
2017-10-07T16:01:51.249Z,11.20
2017-10-07T16:04:18.882Z,11.20
2017-10-07T16:06:46.478Z,11.20
2017-10-07T16:09:14.089Z,11.20
2017-10-07T16:11:42.716Z,11.30
2017-10-07T16:14:10.357Z,11.30
2017-10-07T16:16:38.007Z,11.30
2017-10-07T16:19:05.789Z,11.30
2017-10-07T16:21:34.122Z,11.40
2017-10-07T16:24:01.696Z,11.30
2017-10-07T16:26:30.054Z,11.40
2017-10-07T16:28:57.655Z,11.40
2017-10-07T16:31:25.315Z,11.40
2017-10-07T16:33:53.758Z,11.30
2017-10-07T16:36:21.372Z,11.40
2017-10-07T16:38:49.785Z,11.50
2017-10-07T16:41:17.360Z,11.40
2017-10-07T16:43:45.461Z,11.40
2017-10-07T16:46:13.851Z,11.50
2017-10-07T16:48:41.474Z,11.50
2017-10-07T16:51:09.105Z,11.50
2017-10-07T16:53:36.684Z,11.60
2017-10-07T16:56:04.476Z,11.60
2017-10-07T16:58:32.862Z,11.50
2017-10-07T17:01:00.445Z,11.50
2017-10-07T17:03:28.414Z,11.60
2017-10-07T17:05:56.096Z,11.50
2017-10-07T17:08:23.716Z,11.50
2017-10-07T17:10:52.094Z,11.50
2017-10-07T17:13:20.511Z,11.40
2017-10-07T17:15:48.140Z,11.40
2017-10-07T17:18:16.479Z,11.40
2017-10-07T17:20:44.119Z,11.50
2017-10-07T17:23:11.743Z,11.50
2017-10-07T17:25:40.102Z,11.60
2017-10-07T17:28:08.029Z,11.50
2017-10-07T17:30:35.645Z,11.60
2017-10-07T17:33:03.274Z,11.60
2017-10-07T17:35:30.915Z,11.60
2017-10-07T17:37:58.494Z,11.50
2017-10-07T17:40:26.823Z,11.50
2017-10-07T17:42:54.459Z,11.50
2017-10-07T17:45:22.858Z,11.50
2017-10-07T17:47:50.498Z,11.50
2017-10-07T17:52:51.925Z,11.60
2017-10-07T17:55:19.484Z,11.50
2017-10-07T17:57:47.954Z,11.50
2017-10-07T18:00:15.620Z,11.50
2017-10-07T18:02:43.222Z,11.60
2017-10-07T18:05:11.600Z,11.40
2017-10-07T18:07:39.216Z,11.40
2017-10-07T18:10:06.822Z,11.50
2017-10-07T18:12:34.416Z,11.50
2017-10-07T18:15:02.325Z,11.50
2017-10-07T18:17:29.957Z,11.50
2017-10-07T18:19:57.608Z,11.50
2017-10-07T18:22:25.229Z,11.50
2017-10-07T18:24:52.830Z,11.60
2017-10-07T18:27:20.489Z,11.60
2017-10-07T18:29:48.120Z,11.60
2017-10-07T18:32:15.743Z,11.50
2017-10-07T18:34:43.373Z,11.50
2017-10-07T18:37:11.813Z,11.50
2017-10-07T18:39:39.439Z,11.50
2017-10-07T18:42:07.040Z,11.50
2017-10-07T18:44:34.637Z,11.50
2017-10-07T18:47:02.261Z,11.50
2017-10-07T18:49:29.867Z,11.60
2017-10-07T18:51:57.485Z,11.60
2017-10-07T18:54:25.107Z,11.60
2017-10-07T18:56:52.725Z,11.60
2017-10-07T18:59:22.029Z,11.60
2017-10-07T19:01:49.687Z,11.60
2017-10-07T19:04:18.144Z,11.60
2017-10-07T19:06:46.751Z,11.60
2017-10-07T19:09:15.096Z,11.60
2017-10-07T19:11:42.677Z,11.60
2017-10-07T19:14:10.316Z,11.70
2017-10-07T19:16:37.912Z,11.60
2017-10-07T19:19:06.289Z,11.50
2017-10-07T19:21:34.667Z,11.50
2017-10-07T19:24:03.051Z,11.50
2017-10-07T19:26:31.394Z,11.50
2017-10-07T19:28:58.984Z,11.50
2017-10-07T19:31:27.308Z,11.50
2017-10-07T19:33:54.909Z,11.50
2017-10-07T19:36:22.525Z,11.50
2017-10-07T19:38:50.113Z,11.50
2017-10-07T19:41:17.772Z,11.50
2017-10-07T19:43:45.397Z,11.60
2017-10-07T19:46:12.991Z,11.60
2017-10-07T19:48:40.579Z,11.60
2017-10-07T19:51:08.222Z,11.60
2017-10-07T19:53:35.807Z,11.60
2017-10-07T19:56:03.373Z,11.60
2017-10-07T19:58:31.782Z,11.60
2017-10-07T20:00:59.421Z,11.60
2017-10-07T20:03:27.034Z,11.60
2017-10-07T20:05:54.616Z,11.60
2017-10-07T20:08:22.334Z,11.60
2017-10-07T20:10:49.949Z,11.70
2017-10-07T20:13:18.345Z,11.70
2017-10-07T20:15:45.907Z,11.60
2017-10-07T20:18:14.272Z,11.70
2017-10-07T20:20:41.835Z,11.70
2017-10-07T20:23:11.131Z,11.60
2017-10-07T20:25:38.741Z,11.60
2017-10-07T20:28:06.354Z,11.60
2017-10-07T20:30:34.670Z,11.60
2017-10-07T20:33:02.245Z,11.60
2017-10-07T20:35:30.625Z,11.70
2017-10-07T20:37:58.644Z,11.70
2017-10-07T20:40:27.019Z,11.70
2017-10-07T20:42:55.904Z,11.70
2017-10-07T20:45:24.308Z,11.60
2017-10-07T20:47:51.919Z,11.60
2017-10-07T20:50:20.143Z,11.70
2017-10-07T20:52:47.762Z,11.70
2017-10-07T20:55:15.429Z,11.60
2017-10-07T20:57:43.058Z,11.60
2017-10-07T21:00:10.632Z,11.60
2017-10-07T21:02:38.246Z,11.60
2017-10-07T21:05:06.587Z,11.60
2017-10-07T21:07:34.184Z,11.60
2017-10-07T21:10:01.841Z,11.80
2017-10-07T21:12:29.461Z,11.80
2017-10-07T21:14:57.081Z,11.90
2017-10-07T21:17:24.703Z,11.80
2017-10-07T21:19:53.879Z,11.70
2017-10-07T21:22:21.539Z,11.70
2017-10-07T21:24:49.232Z,11.80
2017-10-07T21:27:16.885Z,11.60
2017-10-07T21:29:45.260Z,11.70
2017-10-07T21:32:12.860Z,11.70
2017-10-07T21:34:40.462Z,11.80
2017-10-07T21:37:08.138Z,11.80
2017-10-07T21:39:35.761Z,11.80
2017-10-07T21:42:03.399Z,11.90
2017-10-07T21:44:31.927Z,11.90
2017-10-07T21:46:59.594Z,11.90
2017-10-07T21:49:27.288Z,11.80
2017-10-07T21:51:55.743Z,11.90
2017-10-07T21:54:23.775Z,11.90
2017-10-07T21:56:51.386Z,11.80
2017-10-07T21:59:18.976Z,11.90
2017-10-07T22:01:46.711Z,11.80
2017-10-07T22:04:14.368Z,11.90
2017-10-07T22:06:41.931Z,12.00
2017-10-07T22:09:10.437Z,11.90
2017-10-07T22:11:38.782Z,11.80
2017-10-07T22:14:06.796Z,11.80
2017-10-07T22:16:34.364Z,11.80
2017-10-07T22:19:01.980Z,11.90
2017-10-07T22:21:30.488Z,11.80
2017-10-07T22:23:58.089Z,11.80
2017-10-07T22:26:25.709Z,11.90
2017-10-07T22:28:53.303Z,11.90
2017-10-07T22:31:20.884Z,11.80
2017-10-07T22:33:48.824Z,11.80
2017-10-07T22:36:16.418Z,11.70
2017-10-07T22:38:44.072Z,11.70
2017-10-07T22:41:12.319Z,11.80
2017-10-07T22:43:39.986Z,11.80
2017-10-07T22:46:07.582Z,11.70
2017-10-07T22:48:35.166Z,11.70
2017-10-07T22:51:03.544Z,11.60
2017-10-07T22:53:31.921Z,11.60
2017-10-07T22:56:00.325Z,11.60
2017-10-07T22:58:27.965Z,11.60
2017-10-07T23:00:55.583Z,11.60
2017-10-07T23:03:23.204Z,11.70
2017-10-07T23:05:51.390Z,11.80
2017-10-07T23:08:19.173Z,11.80
2017-10-07T23:10:46.760Z,11.80
2017-10-07T23:13:14.360Z,11.90
2017-10-07T23:15:41.912Z,12.00
2017-10-07T23:18:09.582Z,12.00
2017-10-07T23:20:37.552Z,12.10
2017-10-07T23:23:05.174Z,12.00
2017-10-07T23:25:32.825Z,12.10
2017-10-07T23:28:01.194Z,12.10
2017-10-07T23:30:29.761Z,12.10
2017-10-07T23:32:58.894Z,12.10
2017-10-07T23:35:27.254Z,12.20
2017-10-07T23:37:55.619Z,12.20
2017-10-07T23:40:23.194Z,12.20
2017-10-07T23:42:52.339Z,12.40
2017-10-07T23:45:19.912Z,12.40
2017-10-07T23:47:47.501Z,12.30
2017-10-07T23:50:15.928Z,12.40
2017-10-07T23:52:43.550Z,12.30
2017-10-07T23:55:11.937Z,12.20
2017-10-07T23:57:39.551Z,12.20
